sensor_id;sensor_type;location;lat;lon;timestamp;P1;durP1;ratioP1;P2;durP2;ratioP2
34900;SDS011;21112;51.976;5.660;2024-03-06T00:02:20;24.15;;;10.82;;
34900;SDS011;21112;51.976;5.660;2024-03-06T00:04:47;24.13;;;10.18;;
34900;SDS011;21112;51.976;5.660;2024-03-06T00:07:14;26.73;;;11.25;;
34900;SDS011;21112;51.976;5.660;2024-03-06T00:09:42;22.50;;;10.93;;
34900;SDS011;21112;51.976;5.660;2024-03-06T00:12:10;25.08;;;10.93;;
34900;SDS011;21112;51.976;5.660;2024-03-06T00:14:36;26.08;;;10.90;;
34900;SDS011;21112;51.976;5.660;2024-03-06T00:17:03;25.23;;;11.13;;
34900;SDS011;21112;51.976;5.660;2024-03-06T00:19:31;24.38;;;10.10;;
34900;SDS011;21112;51.976;5.660;2024-03-06T00:21:59;21.40;;;9.95;;
34900;SDS011;21112;51.976;5.660;2024-03-06T00:24:26;24.00;;;10.18;;
34900;SDS011;21112;51.976;5.660;2024-03-06T00:26:54;18.63;;;9.80;;
34900;SDS011;21112;51.976;5.660;2024-03-06T00:29:21;23.63;;;9.98;;
34900;SDS011;21112;51.976;5.660;2024-03-06T00:31:48;22.13;;;10.05;;
34900;SDS011;21112;51.976;5.660;2024-03-06T00:34:15;24.13;;;9.80;;
34900;SDS011;21112;51.976;5.660;2024-03-06T00:36:42;23.85;;;10.70;;
34900;SDS011;21112;51.976;5.660;2024-03-06T00:39:09;26.40;;;10.68;;
34900;SDS011;21112;51.976;5.660;2024-03-06T00:41:36;22.75;;;9.88;;
34900;SDS011;21112;51.976;5.660;2024-03-06T00:44:07;19.92;;;9.77;;
34900;SDS011;21112;51.976;5.660;2024-03-06T00:46:34;21.83;;;9.55;;
34900;SDS011;21112;51.976;5.660;2024-03-06T00:49:00;22.63;;;9.77;;
34900;SDS011;21112;51.976;5.660;2024-03-06T00:51:27;18.13;;;9.00;;
34900;SDS011;21112;51.976;5.660;2024-03-06T00:53:54;23.13;;;9.85;;
34900;SDS011;21112;51.976;5.660;2024-03-06T00:56:21;23.80;;;10.30;;
34900;SDS011;21112;51.976;5.660;2024-03-06T00:58:48;24.75;;;10.60;;
34900;SDS011;21112;51.976;5.660;2024-03-06T01:01:17;21.95;;;10.27;;
34900;SDS011;21112;51.976;5.660;2024-03-06T01:03:44;20.13;;;9.93;;
34900;SDS011;21112;51.976;5.660;2024-03-06T01:06:10;18.20;;;9.57;;
34900;SDS011;21112;51.976;5.660;2024-03-06T01:08:37;22.88;;;10.98;;
34900;SDS011;21112;51.976;5.660;2024-03-06T01:11:04;23.75;;;10.07;;
34900;SDS011;21112;51.976;5.660;2024-03-06T01:13:30;21.92;;;10.07;;
34900;SDS011;21112;51.976;5.660;2024-03-06T01:18:27;19.25;;;8.32;;
34900;SDS011;21112;51.976;5.660;2024-03-06T01:20:54;21.88;;;8.85;;
34900;SDS011;21112;51.976;5.660;2024-03-06T01:23:21;20.55;;;9.38;;
34900;SDS011;21112;51.976;5.660;2024-03-06T01:25:48;24.67;;;9.93;;
34900;SDS011;21112;51.976;5.660;2024-03-06T01:28:14;20.55;;;9.27;;
34900;SDS011;21112;51.976;5.660;2024-03-06T01:30:41;18.50;;;8.88;;
34900;SDS011;21112;51.976;5.660;2024-03-06T01:33:08;21.38;;;9.25;;
34900;SDS011;21112;51.976;5.660;2024-03-06T01:35:36;20.38;;;9.63;;
34900;SDS011;21112;51.976;5.660;2024-03-06T01:38:06;20.17;;;9.48;;
34900;SDS011;21112;51.976;5.660;2024-03-06T01:40:34;21.70;;;9.93;;
34900;SDS011;21112;51.976;5.660;2024-03-06T01:43:01;19.95;;;9.38;;
34900;SDS011;21112;51.976;5.660;2024-03-06T01:45:28;21.48;;;9.23;;
34900;SDS011;21112;51.976;5.660;2024-03-06T01:47:56;20.92;;;9.52;;
34900;SDS011;21112;51.976;5.660;2024-03-06T01:50:22;18.52;;;9.13;;
34900;SDS011;21112;51.976;5.660;2024-03-06T01:52:51;20.23;;;9.68;;
34900;SDS011;21112;51.976;5.660;2024-03-06T01:55:18;19.40;;;8.63;;
34900;SDS011;21112;51.976;5.660;2024-03-06T01:57:45;22.65;;;9.60;;
34900;SDS011;21112;51.976;5.660;2024-03-06T02:00:12;22.88;;;10.15;;
34900;SDS011;21112;51.976;5.660;2024-03-06T02:02:41;20.42;;;8.55;;
34900;SDS011;21112;51.976;5.660;2024-03-06T02:05:09;21.15;;;8.75;;
34900;SDS011;21112;51.976;5.660;2024-03-06T02:07:36;16.83;;;8.38;;
34900;SDS011;21112;51.976;5.660;2024-03-06T02:10:08;18.05;;;9.18;;
34900;SDS011;21112;51.976;5.660;2024-03-06T02:12:37;17.85;;;8.43;;
34900;SDS011;21112;51.976;5.660;2024-03-06T02:15:04;20.90;;;9.52;;
34900;SDS011;21112;51.976;5.660;2024-03-06T02:17:32;21.20;;;9.07;;
34900;SDS011;21112;51.976;5.660;2024-03-06T02:19:59;21.13;;;8.90;;
34900;SDS011;21112;51.976;5.660;2024-03-06T02:22:27;21.20;;;9.13;;
34900;SDS011;21112;51.976;5.660;2024-03-06T02:24:54;18.65;;;8.77;;
34900;SDS011;21112;51.976;5.660;2024-03-06T02:29:49;15.45;;;7.35;;
34900;SDS011;21112;51.976;5.660;2024-03-06T02:32:16;18.02;;;8.70;;
34900;SDS011;21112;51.976;5.660;2024-03-06T02:34:43;16.80;;;8.48;;
34900;SDS011;21112;51.976;5.660;2024-03-06T02:37:10;18.55;;;8.98;;
34900;SDS011;21112;51.976;5.660;2024-03-06T02:39:38;19.58;;;9.60;;
34900;SDS011;21112;51.976;5.660;2024-03-06T02:42:05;22.30;;;9.50;;
34900;SDS011;21112;51.976;5.660;2024-03-06T02:44:34;21.23;;;9.77;;
34900;SDS011;21112;51.976;5.660;2024-03-06T02:47:00;20.33;;;9.23;;
34900;SDS011;21112;51.976;5.660;2024-03-06T02:49:27;22.30;;;9.98;;
34900;SDS011;21112;51.976;5.660;2024-03-06T02:51:54;22.42;;;9.68;;
34900;SDS011;21112;51.976;5.660;2024-03-06T02:54:22;22.48;;;9.88;;
34900;SDS011;21112;51.976;5.660;2024-03-06T02:56:52;17.30;;;8.63;;
34900;SDS011;21112;51.976;5.660;2024-03-06T02:59:19;26.83;;;10.15;;
34900;SDS011;21112;51.976;5.660;2024-03-06T03:01:45;24.05;;;9.73;;
34900;SDS011;21112;51.976;5.660;2024-03-06T03:04:12;26.02;;;10.63;;
34900;SDS011;21112;51.976;5.660;2024-03-06T03:06:39;22.00;;;9.75;;
34900;SDS011;21112;51.976;5.660;2024-03-06T03:09:07;22.30;;;9.75;;
34900;SDS011;21112;51.976;5.660;2024-03-06T03:11:36;18.05;;;9.48;;
34900;SDS011;21112;51.976;5.660;2024-03-06T03:14:05;23.42;;;10.32;;
34900;SDS011;21112;51.976;5.660;2024-03-06T03:16:32;19.95;;;9.45;;
34900;SDS011;21112;51.976;5.660;2024-03-06T03:19:00;22.60;;;9.50;;
34900;SDS011;21112;51.976;5.660;2024-03-06T03:21:27;21.25;;;9.93;;
34900;SDS011;21112;51.976;5.660;2024-03-06T03:23:54;21.90;;;10.23;;
34900;SDS011;21112;51.976;5.660;2024-03-06T03:26:20;25.70;;;10.40;;
34900;SDS011;21112;51.976;5.660;2024-03-06T03:28:47;24.67;;;10.85;;
34900;SDS011;21112;51.976;5.660;2024-03-06T03:31:15;21.80;;;10.38;;
34900;SDS011;21112;51.976;5.660;2024-03-06T03:33:42;19.10;;;9.35;;
34900;SDS011;21112;51.976;5.660;2024-03-06T03:36:09;19.70;;;9.70;;
34900;SDS011;21112;51.976;5.660;2024-03-06T03:38:37;23.58;;;9.80;;
34900;SDS011;21112;51.976;5.660;2024-03-06T03:41:06;19.58;;;9.55;;
34900;SDS011;21112;51.976;5.660;2024-03-06T03:43:34;18.27;;;8.85;;
34900;SDS011;21112;51.976;5.660;2024-03-06T03:46:01;22.10;;;9.15;;
34900;SDS011;21112;51.976;5.660;2024-03-06T03:48:30;21.88;;;9.95;;
34900;SDS011;21112;51.976;5.660;2024-03-06T03:51:00;22.08;;;9.55;;
34900;SDS011;21112;51.976;5.660;2024-03-06T03:53:28;23.73;;;10.57;;
34900;SDS011;21112;51.976;5.660;2024-03-06T03:55:55;27.92;;;10.70;;
34900;SDS011;21112;51.976;5.660;2024-03-06T03:58:21;21.33;;;10.15;;
34900;SDS011;21112;51.976;5.660;2024-03-06T04:00:48;22.45;;;9.40;;
34900;SDS011;21112;51.976;5.660;2024-03-06T04:03:17;22.25;;;9.60;;
34900;SDS011;21112;51.976;5.660;2024-03-06T04:05:46;21.00;;;9.60;;
34900;SDS011;21112;51.976;5.660;2024-03-06T04:08:16;18.95;;;9.25;;
34900;SDS011;21112;51.976;5.660;2024-03-06T04:10:43;17.50;;;8.20;;
34900;SDS011;21112;51.976;5.660;2024-03-06T04:13:11;18.42;;;8.50;;
34900;SDS011;21112;51.976;5.660;2024-03-06T04:15:38;14.25;;;7.50;;
34900;SDS011;21112;51.976;5.660;2024-03-06T04:18:07;16.70;;;7.50;;
34900;SDS011;21112;51.976;5.660;2024-03-06T04:20:36;13.43;;;6.85;;
34900;SDS011;21112;51.976;5.660;2024-03-06T04:23:04;18.25;;;8.55;;
34900;SDS011;21112;51.976;5.660;2024-03-06T04:25:31;13.43;;;6.75;;
34900;SDS011;21112;51.976;5.660;2024-03-06T04:27:58;16.92;;;7.43;;
34900;SDS011;21112;51.976;5.660;2024-03-06T04:30:26;16.42;;;7.47;;
34900;SDS011;21112;51.976;5.660;2024-03-06T04:32:53;14.80;;;6.05;;
34900;SDS011;21112;51.976;5.660;2024-03-06T04:35:22;12.95;;;6.50;;
34900;SDS011;21112;51.976;5.660;2024-03-06T04:37:49;14.35;;;6.97;;
34900;SDS011;21112;51.976;5.660;2024-03-06T04:40:17;18.60;;;7.50;;
34900;SDS011;21112;51.976;5.660;2024-03-06T04:42:47;16.55;;;7.10;;
34900;SDS011;21112;51.976;5.660;2024-03-06T04:45:14;13.85;;;7.20;;
34900;SDS011;21112;51.976;5.660;2024-03-06T04:47:42;20.58;;;8.07;;
34900;SDS011;21112;51.976;5.660;2024-03-06T04:50:09;17.17;;;7.68;;
34900;SDS011;21112;51.976;5.660;2024-03-06T04:52:37;15.85;;;7.45;;
34900;SDS011;21112;51.976;5.660;2024-03-06T04:55:05;14.23;;;6.43;;
34900;SDS011;21112;51.976;5.660;2024-03-06T04:57:38;17.30;;;8.18;;
34900;SDS011;21112;51.976;5.660;2024-03-06T05:00:08;17.00;;;7.78;;
34900;SDS011;21112;51.976;5.660;2024-03-06T05:02:35;20.05;;;7.60;;
34900;SDS011;21112;51.976;5.660;2024-03-06T05:05:02;15.75;;;7.45;;
34900;SDS011;21112;51.976;5.660;2024-03-06T05:07:30;15.53;;;7.33;;
34900;SDS011;21112;51.976;5.660;2024-03-06T05:09:58;18.58;;;7.53;;
34900;SDS011;21112;51.976;5.660;2024-03-06T05:12:26;17.17;;;8.80;;
34900;SDS011;21112;51.976;5.660;2024-03-06T05:14:55;19.85;;;8.57;;
34900;SDS011;21112;51.976;5.660;2024-03-06T05:17:22;19.42;;;9.20;;
34900;SDS011;21112;51.976;5.660;2024-03-06T05:19:49;18.40;;;9.02;;
34900;SDS011;21112;51.976;5.660;2024-03-06T05:22:16;18.02;;;8.50;;
34900;SDS011;21112;51.976;5.660;2024-03-06T05:24:43;16.85;;;7.93;;
34900;SDS011;21112;51.976;5.660;2024-03-06T05:27:10;16.98;;;8.15;;
34900;SDS011;21112;51.976;5.660;2024-03-06T05:29:44;22.10;;;9.00;;
34900;SDS011;21112;51.976;5.660;2024-03-06T05:32:12;17.95;;;8.15;;
34900;SDS011;21112;51.976;5.660;2024-03-06T05:34:39;17.30;;;7.43;;
34900;SDS011;21112;51.976;5.660;2024-03-06T05:37:06;16.90;;;7.97;;
34900;SDS011;21112;51.976;5.660;2024-03-06T05:39:33;17.75;;;8.45;;
34900;SDS011;21112;51.976;5.660;2024-03-06T05:42:00;22.48;;;9.25;;
34900;SDS011;21112;51.976;5.660;2024-03-06T05:44:29;20.65;;;8.68;;
34900;SDS011;21112;51.976;5.660;2024-03-06T05:47:00;20.60;;;8.43;;
34900;SDS011;21112;51.976;5.660;2024-03-06T05:49:29;17.42;;;8.25;;
34900;SDS011;21112;51.976;5.660;2024-03-06T05:51:57;19.17;;;8.25;;
34900;SDS011;21112;51.976;5.660;2024-03-06T05:54:24;18.67;;;7.57;;
34900;SDS011;21112;51.976;5.660;2024-03-06T05:56:52;19.20;;;8.00;;
34900;SDS011;21112;51.976;5.660;2024-03-06T05:59:19;20.63;;;8.55;;
34900;SDS011;21112;51.976;5.660;2024-03-06T06:01:49;23.05;;;10.55;;
34900;SDS011;21112;51.976;5.660;2024-03-06T06:04:18;24.98;;;10.82;;
34900;SDS011;21112;51.976;5.660;2024-03-06T06:06:46;23.30;;;10.02;;
34900;SDS011;21112;51.976;5.660;2024-03-06T06:09:13;22.63;;;9.70;;
34900;SDS011;21112;51.976;5.660;2024-03-06T06:11:41;20.10;;;9.45;;
34900;SDS011;21112;51.976;5.660;2024-03-06T06:16:36;28.15;;;9.98;;
34900;SDS011;21112;51.976;5.660;2024-03-06T06:19:03;20.50;;;8.73;;
34900;SDS011;21112;51.976;5.660;2024-03-06T06:21:30;23.77;;;11.30;;
34900;SDS011;21112;51.976;5.660;2024-03-06T06:23:59;29.25;;;12.38;;
34900;SDS011;21112;51.976;5.660;2024-03-06T06:26:26;33.22;;;12.48;;
34900;SDS011;21112;51.976;5.660;2024-03-06T06:29:00;30.15;;;12.23;;
34900;SDS011;21112;51.976;5.660;2024-03-06T06:31:27;37.85;;;13.38;;
34900;SDS011;21112;51.976;5.660;2024-03-06T06:36:22;26.50;;;10.40;;
34900;SDS011;21112;51.976;5.660;2024-03-06T06:38:55;34.72;;;14.50;;
34900;SDS011;21112;51.976;5.660;2024-03-06T06:41:24;33.83;;;14.15;;
34900;SDS011;21112;51.976;5.660;2024-03-06T06:46:17;31.15;;;11.80;;
34900;SDS011;21112;51.976;5.660;2024-03-06T06:48:46;29.27;;;12.60;;
34900;SDS011;21112;51.976;5.660;2024-03-06T06:51:14;28.48;;;12.43;;
34900;SDS011;21112;51.976;5.660;2024-03-06T06:53:41;27.73;;;12.75;;
34900;SDS011;21112;51.976;5.660;2024-03-06T06:56:08;31.55;;;14.73;;
34900;SDS011;21112;51.976;5.660;2024-03-06T06:58:36;30.75;;;14.48;;
34900;SDS011;21112;51.976;5.660;2024-03-06T07:01:09;26.90;;;11.90;;
34900;SDS011;21112;51.976;5.660;2024-03-06T07:03:36;26.95;;;13.05;;
34900;SDS011;21112;51.976;5.660;2024-03-06T07:06:03;24.83;;;11.00;;
34900;SDS011;21112;51.976;5.660;2024-03-06T07:08:32;23.80;;;11.20;;
34900;SDS011;21112;51.976;5.660;2024-03-06T07:10:59;19.13;;;8.63;;
34900;SDS011;21112;51.976;5.660;2024-03-06T07:13:26;18.42;;;8.93;;
34900;SDS011;21112;51.976;5.660;2024-03-06T07:15:54;18.63;;;9.23;;
34900;SDS011;21112;51.976;5.660;2024-03-06T07:18:22;18.50;;;8.38;;
34900;SDS011;21112;51.976;5.660;2024-03-06T07:20:48;16.70;;;8.13;;
34900;SDS011;21112;51.976;5.660;2024-03-06T07:23:16;15.68;;;7.95;;
34900;SDS011;21112;51.976;5.660;2024-03-06T07:25:45;19.20;;;9.65;;
34900;SDS011;21112;51.976;5.660;2024-03-06T07:28:14;20.17;;;8.63;;
34900;SDS011;21112;51.976;5.660;2024-03-06T07:30:43;19.25;;;9.07;;
34900;SDS011;21112;51.976;5.660;2024-03-06T07:33:11;18.95;;;8.40;;
34900;SDS011;21112;51.976;5.660;2024-03-06T07:38:11;13.98;;;7.50;;
34900;SDS011;21112;51.976;5.660;2024-03-06T07:40:38;22.23;;;9.52;;
34900;SDS011;21112;51.976;5.660;2024-03-06T07:43:05;15.88;;;7.38;;
34900;SDS011;21112;51.976;5.660;2024-03-06T07:45:32;15.27;;;7.55;;
34900;SDS011;21112;51.976;5.660;2024-03-06T07:47:58;24.73;;;11.95;;
34900;SDS011;21112;51.976;5.660;2024-03-06T07:50:27;15.27;;;8.18;;
34900;SDS011;21112;51.976;5.660;2024-03-06T07:52:55;18.90;;;9.38;;
34900;SDS011;21112;51.976;5.660;2024-03-06T07:55:22;21.80;;;9.48;;
34900;SDS011;21112;51.976;5.660;2024-03-06T07:57:49;19.55;;;8.73;;
34900;SDS011;21112;51.976;5.660;2024-03-06T08:00:18;17.95;;;8.68;;
34900;SDS011;21112;51.976;5.660;2024-03-06T08:02:45;17.92;;;8.07;;
34900;SDS011;21112;51.976;5.660;2024-03-06T08:05:15;16.38;;;7.70;;
34900;SDS011;21112;51.976;5.660;2024-03-06T08:07:44;16.40;;;7.75;;
34900;SDS011;21112;51.976;5.660;2024-03-06T08:12:39;16.35;;;7.75;;
34900;SDS011;21112;51.976;5.660;2024-03-06T08:15:10;20.98;;;8.82;;
34900;SDS011;21112;51.976;5.660;2024-03-06T08:17:41;17.30;;;8.77;;
34900;SDS011;21112;51.976;5.660;2024-03-06T08:20:09;16.92;;;8.30;;
34900;SDS011;21112;51.976;5.660;2024-03-06T08:22:38;19.03;;;8.53;;
34900;SDS011;21112;51.976;5.660;2024-03-06T08:25:07;20.25;;;9.13;;
34900;SDS011;21112;51.976;5.660;2024-03-06T08:27:36;19.35;;;8.80;;
34900;SDS011;21112;51.976;5.660;2024-03-06T08:30:06;17.35;;;8.70;;
34900;SDS011;21112;51.976;5.660;2024-03-06T08:32:35;20.23;;;8.77;;
34900;SDS011;21112;51.976;5.660;2024-03-06T08:35:03;23.53;;;9.20;;
34900;SDS011;21112;51.976;5.660;2024-03-06T08:37:32;21.70;;;9.52;;
34900;SDS011;21112;51.976;5.660;2024-03-06T08:39:59;19.52;;;8.82;;
34900;SDS011;21112;51.976;5.660;2024-03-06T08:42:36;19.30;;;8.98;;
34900;SDS011;21112;51.976;5.660;2024-03-06T08:45:05;22.77;;;9.93;;
34900;SDS011;21112;51.976;5.660;2024-03-06T08:47:44;19.70;;;9.02;;
34900;SDS011;21112;51.976;5.660;2024-03-06T08:50:12;21.35;;;9.38;;
34900;SDS011;21112;51.976;5.660;2024-03-06T08:52:41;19.70;;;8.95;;
34900;SDS011;21112;51.976;5.660;2024-03-06T08:55:09;18.88;;;9.35;;
34900;SDS011;21112;51.976;5.660;2024-03-06T08:57:38;19.38;;;8.63;;
34900;SDS011;21112;51.976;5.660;2024-03-06T09:00:09;22.13;;;9.88;;
34900;SDS011;21112;51.976;5.660;2024-03-06T09:02:36;22.98;;;9.27;;
34900;SDS011;21112;51.976;5.660;2024-03-06T09:07:35;24.05;;;10.15;;
34900;SDS011;21112;51.976;5.660;2024-03-06T09:10:05;21.48;;;9.32;;
34900;SDS011;21112;51.976;5.660;2024-03-06T09:12:33;24.42;;;10.98;;
34900;SDS011;21112;51.976;5.660;2024-03-06T09:15:01;23.58;;;9.93;;
34900;SDS011;21112;51.976;5.660;2024-03-06T09:17:36;22.50;;;10.27;;
34900;SDS011;21112;51.976;5.660;2024-03-06T09:20:03;22.70;;;10.35;;
34900;SDS011;21112;51.976;5.660;2024-03-06T09:22:35;22.00;;;9.68;;
34900;SDS011;21112;51.976;5.660;2024-03-06T09:25:05;26.00;;;11.53;;
34900;SDS011;21112;51.976;5.660;2024-03-06T09:27:32;25.70;;;10.13;;
34900;SDS011;21112;51.976;5.660;2024-03-06T09:29:59;25.73;;;10.40;;
34900;SDS011;21112;51.976;5.660;2024-03-06T09:32:27;20.55;;;10.50;;
34900;SDS011;21112;51.976;5.660;2024-03-06T09:34:54;19.63;;;9.52;;
34900;SDS011;21112;51.976;5.660;2024-03-06T09:37:21;20.60;;;9.40;;
34900;SDS011;21112;51.976;5.660;2024-03-06T09:39:48;25.90;;;11.48;;
34900;SDS011;21112;51.976;5.660;2024-03-06T09:42:16;25.47;;;11.10;;
34900;SDS011;21112;51.976;5.660;2024-03-06T09:47:13;23.95;;;10.27;;
34900;SDS011;21112;51.976;5.660;2024-03-06T09:49:44;24.23;;;10.60;;
34900;SDS011;21112;51.976;5.660;2024-03-06T09:52:11;20.38;;;9.23;;
34900;SDS011;21112;51.976;5.660;2024-03-06T09:54:39;25.03;;;10.60;;
34900;SDS011;21112;51.976;5.660;2024-03-06T09:57:06;29.35;;;12.30;;
34900;SDS011;21112;51.976;5.660;2024-03-06T09:59:33;27.35;;;11.60;;
34900;SDS011;21112;51.976;5.660;2024-03-06T10:02:00;25.58;;;9.68;;
34900;SDS011;21112;51.976;5.660;2024-03-06T10:04:28;19.80;;;9.15;;
34900;SDS011;21112;51.976;5.660;2024-03-06T10:07:00;26.02;;;11.23;;
34900;SDS011;21112;51.976;5.660;2024-03-06T10:09:27;22.10;;;10.38;;
34900;SDS011;21112;51.976;5.660;2024-03-06T10:11:56;26.48;;;11.43;;
34900;SDS011;21112;51.976;5.660;2024-03-06T10:14:23;24.33;;;11.48;;
34900;SDS011;21112;51.976;5.660;2024-03-06T10:16:53;28.92;;;11.57;;
34900;SDS011;21112;51.976;5.660;2024-03-06T10:19:22;26.17;;;11.90;;
34900;SDS011;21112;51.976;5.660;2024-03-06T10:21:49;34.70;;;12.50;;
34900;SDS011;21112;51.976;5.660;2024-03-06T10:24:21;24.25;;;11.38;;
34900;SDS011;21112;51.976;5.660;2024-03-06T10:26:49;24.48;;;11.13;;
34900;SDS011;21112;51.976;5.660;2024-03-06T10:29:19;26.08;;;11.15;;
34900;SDS011;21112;51.976;5.660;2024-03-06T10:31:51;23.40;;;10.30;;
34900;SDS011;21112;51.976;5.660;2024-03-06T10:34:20;24.38;;;10.40;;
34900;SDS011;21112;51.976;5.660;2024-03-06T10:36:48;26.48;;;11.20;;
34900;SDS011;21112;51.976;5.660;2024-03-06T10:39:21;25.92;;;11.57;;
34900;SDS011;21112;51.976;5.660;2024-03-06T10:41:51;27.15;;;12.30;;
34900;SDS011;21112;51.976;5.660;2024-03-06T10:44:21;28.17;;;12.75;;
34900;SDS011;21112;51.976;5.660;2024-03-06T10:46:51;27.88;;;12.07;;
34900;SDS011;21112;51.976;5.660;2024-03-06T10:49:22;26.02;;;11.27;;
34900;SDS011;21112;51.976;5.660;2024-03-06T10:51:51;24.02;;;10.80;;
34900;SDS011;21112;51.976;5.660;2024-03-06T10:54:19;24.98;;;10.23;;
34900;SDS011;21112;51.976;5.660;2024-03-06T10:56:49;22.23;;;10.38;;
34900;SDS011;21112;51.976;5.660;2024-03-06T10:59:17;25.40;;;10.23;;
34900;SDS011;21112;51.976;5.660;2024-03-06T11:01:46;24.15;;;10.75;;
34900;SDS011;21112;51.976;5.660;2024-03-06T11:04:13;26.60;;;10.48;;
34900;SDS011;21112;51.976;5.660;2024-03-06T11:06:41;30.48;;;10.98;;
34900;SDS011;21112;51.976;5.660;2024-03-06T11:09:13;28.23;;;11.07;;
34900;SDS011;21112;51.976;5.660;2024-03-06T11:11:47;27.88;;;11.90;;
34900;SDS011;21112;51.976;5.660;2024-03-06T11:14:17;27.83;;;11.63;;
34900;SDS011;21112;51.976;5.660;2024-03-06T11:17:01;33.05;;;11.15;;
34900;SDS011;21112;51.976;5.660;2024-03-06T11:19:29;21.60;;;10.43;;
34900;SDS011;21112;51.976;5.660;2024-03-06T11:21:57;32.22;;;12.55;;
34900;SDS011;21112;51.976;5.660;2024-03-06T11:24:31;29.17;;;11.57;;
34900;SDS011;21112;51.976;5.660;2024-03-06T11:26:59;29.48;;;12.35;;
34900;SDS011;21112;51.976;5.660;2024-03-06T11:32:36;24.83;;;10.63;;
34900;SDS011;21112;51.976;5.660;2024-03-06T11:37:34;24.00;;;9.38;;
34900;SDS011;21112;51.976;5.660;2024-03-06T11:42:33;30.05;;;11.90;;
34900;SDS011;21112;51.976;5.660;2024-03-06T11:47:57;23.95;;;11.30;;
34900;SDS011;21112;51.976;5.660;2024-03-06T11:50:28;25.23;;;11.25;;
34900;SDS011;21112;51.976;5.660;2024-03-06T11:52:56;27.75;;;11.57;;
34900;SDS011;21112;51.976;5.660;2024-03-06T12:00:22;29.75;;;13.18;;
34900;SDS011;21112;51.976;5.660;2024-03-06T12:02:52;29.65;;;13.23;;
34900;SDS011;21112;51.976;5.660;2024-03-06T12:05:21;28.58;;;11.82;;
34900;SDS011;21112;51.976;5.660;2024-03-06T12:07:50;27.52;;;12.05;;
34900;SDS011;21112;51.976;5.660;2024-03-06T12:10:19;31.17;;;13.07;;
34900;SDS011;21112;51.976;5.660;2024-03-06T12:12:46;31.50;;;13.48;;
34900;SDS011;21112;51.976;5.660;2024-03-06T12:15:15;31.50;;;15.23;;
34900;SDS011;21112;51.976;5.660;2024-03-06T12:17:48;35.00;;;14.15;;
34900;SDS011;21112;51.976;5.660;2024-03-06T12:20:17;35.28;;;13.55;;
34900;SDS011;21112;51.976;5.660;2024-03-06T12:22:48;25.10;;;11.68;;
34900;SDS011;21112;51.976;5.660;2024-03-06T12:25:18;33.17;;;12.73;;
34900;SDS011;21112;51.976;5.660;2024-03-06T12:27:49;32.15;;;14.25;;
34900;SDS011;21112;51.976;5.660;2024-03-06T12:30:24;36.67;;;14.00;;
34900;SDS011;21112;51.976;5.660;2024-03-06T12:32:57;32.50;;;14.63;;
34900;SDS011;21112;51.976;5.660;2024-03-06T12:35:26;32.08;;;13.73;;
34900;SDS011;21112;51.976;5.660;2024-03-06T12:37:53;32.75;;;14.55;;
34900;SDS011;21112;51.976;5.660;2024-03-06T12:40:20;37.40;;;13.60;;
34900;SDS011;21112;51.976;5.660;2024-03-06T12:42:47;41.00;;;15.65;;
34900;SDS011;21112;51.976;5.660;2024-03-06T12:45:15;33.88;;;14.70;;
34900;SDS011;21112;51.976;5.660;2024-03-06T12:47:46;34.22;;;13.70;;
34900;SDS011;21112;51.976;5.660;2024-03-06T12:50:18;36.35;;;14.43;;
34900;SDS011;21112;51.976;5.660;2024-03-06T12:55:18;34.60;;;13.50;;
34900;SDS011;21112;51.976;5.660;2024-03-06T12:57:49;34.58;;;14.40;;
34900;SDS011;21112;51.976;5.660;2024-03-06T13:00:19;37.08;;;14.50;;
34900;SDS011;21112;51.976;5.660;2024-03-06T13:02:46;31.88;;;13.93;;
34900;SDS011;21112;51.976;5.660;2024-03-06T13:05:12;29.13;;;13.52;;
34900;SDS011;21112;51.976;5.660;2024-03-06T13:07:43;39.85;;;16.75;;
34900;SDS011;21112;51.976;5.660;2024-03-06T13:10:10;32.55;;;14.00;;
34900;SDS011;21112;51.976;5.660;2024-03-06T13:12:37;32.20;;;12.50;;
34900;SDS011;21112;51.976;5.660;2024-03-06T13:15:05;28.63;;;12.52;;
34900;SDS011;21112;51.976;5.660;2024-03-06T13:20:01;25.03;;;11.67;;
34900;SDS011;21112;51.976;5.660;2024-03-06T13:22:37;26.65;;;11.07;;
34900;SDS011;21112;51.976;5.660;2024-03-06T13:25:12;15.88;;;6.93;;
34900;SDS011;21112;51.976;5.660;2024-03-06T13:27:39;20.27;;;7.90;;
34900;SDS011;21112;51.976;5.660;2024-03-06T13:30:11;15.23;;;6.13;;
34900;SDS011;21112;51.976;5.660;2024-03-06T13:32:38;18.07;;;8.93;;
34900;SDS011;21112;51.976;5.660;2024-03-06T13:35:07;23.73;;;7.95;;
34900;SDS011;21112;51.976;5.660;2024-03-06T13:37:40;14.38;;;6.22;;
34900;SDS011;21112;51.976;5.660;2024-03-06T13:40:08;13.57;;;5.45;;
34900;SDS011;21112;51.976;5.660;2024-03-06T13:42:39;11.48;;;5.80;;
34900;SDS011;21112;51.976;5.660;2024-03-06T13:45:08;15.52;;;5.90;;
34900;SDS011;21112;51.976;5.660;2024-03-06T13:47:36;18.95;;;8.10;;
34900;SDS011;21112;51.976;5.660;2024-03-06T13:50:09;16.33;;;7.03;;
34900;SDS011;21112;51.976;5.660;2024-03-06T13:52:41;14.73;;;6.85;;
34900;SDS011;21112;51.976;5.660;2024-03-06T13:55:11;22.38;;;8.18;;
34900;SDS011;21112;51.976;5.660;2024-03-06T14:00:19;15.90;;;6.97;;
34900;SDS011;21112;51.976;5.660;2024-03-06T14:02:47;14.25;;;5.95;;
34900;SDS011;21112;51.976;5.660;2024-03-06T14:05:14;13.52;;;5.10;;
34900;SDS011;21112;51.976;5.660;2024-03-06T14:07:49;12.88;;;5.32;;
34900;SDS011;21112;51.976;5.660;2024-03-06T14:10:20;10.23;;;4.93;;
34900;SDS011;21112;51.976;5.660;2024-03-06T14:13:03;13.27;;;4.95;;
34900;SDS011;21112;51.976;5.660;2024-03-06T14:15:32;14.48;;;4.72;;
34900;SDS011;21112;51.976;5.660;2024-03-06T14:18:01;13.70;;;5.38;;
34900;SDS011;21112;51.976;5.660;2024-03-06T14:20:27;14.90;;;5.00;;
34900;SDS011;21112;51.976;5.660;2024-03-06T14:22:54;12.15;;;4.07;;
34900;SDS011;21112;51.976;5.660;2024-03-06T14:25:24;15.07;;;5.63;;
34900;SDS011;21112;51.976;5.660;2024-03-06T14:27:50;26.58;;;12.18;;
34900;SDS011;21112;51.976;5.660;2024-03-06T14:30:19;8.25;;;3.53;;
34900;SDS011;21112;51.976;5.660;2024-03-06T14:32:46;20.15;;;5.90;;
34900;SDS011;21112;51.976;5.660;2024-03-06T14:35:15;12.02;;;3.45;;
34900;SDS011;21112;51.976;5.660;2024-03-06T14:37:42;4.88;;;2.33;;
34900;SDS011;21112;51.976;5.660;2024-03-06T14:40:09;8.55;;;2.70;;
34900;SDS011;21112;51.976;5.660;2024-03-06T14:42:37;7.82;;;2.40;;
34900;SDS011;21112;51.976;5.660;2024-03-06T14:45:06;8.15;;;3.00;;
34900;SDS011;21112;51.976;5.660;2024-03-06T14:47:36;7.65;;;3.03;;
34900;SDS011;21112;51.976;5.660;2024-03-06T14:50:03;6.22;;;2.75;;
34900;SDS011;21112;51.976;5.660;2024-03-06T14:52:36;9.90;;;3.90;;
34900;SDS011;21112;51.976;5.660;2024-03-06T14:55:05;12.80;;;5.05;;
34900;SDS011;21112;51.976;5.660;2024-03-06T14:57:34;14.40;;;5.65;;
34900;SDS011;21112;51.976;5.660;2024-03-06T15:00:01;9.27;;;3.92;;
34900;SDS011;21112;51.976;5.660;2024-03-06T15:02:41;9.63;;;3.95;;
34900;SDS011;21112;51.976;5.660;2024-03-06T15:05:07;10.15;;;4.10;;
34900;SDS011;21112;51.976;5.660;2024-03-06T15:07:37;14.52;;;5.65;;
34900;SDS011;21112;51.976;5.660;2024-03-06T15:10:04;15.98;;;5.82;;
34900;SDS011;21112;51.976;5.660;2024-03-06T15:15:02;14.13;;;5.25;;
34900;SDS011;21112;51.976;5.660;2024-03-06T15:17:38;13.32;;;5.40;;
34900;SDS011;21112;51.976;5.660;2024-03-06T15:20:13;13.13;;;5.40;;
34900;SDS011;21112;51.976;5.660;2024-03-06T15:22:39;14.85;;;5.15;;
34900;SDS011;21112;51.976;5.660;2024-03-06T15:25:07;13.43;;;5.55;;
34900;SDS011;21112;51.976;5.660;2024-03-06T15:27:35;11.63;;;5.03;;